sensor_id;sensor_type;location;lat;lon;timestamp;temperature;humidity
19803;DHT22;66074;50.764;6.090;2023-06-10T00:02:03;22.70;74.90
19803;DHT22;66074;50.764;6.090;2023-06-10T00:04:29;22.70;74.20
19803;DHT22;66074;50.764;6.090;2023-06-10T00:06:55;22.60;73.90
19803;DHT22;66074;50.764;6.090;2023-06-10T00:09:21;22.60;74.90
19803;DHT22;66074;50.764;6.090;2023-06-10T00:11:47;22.60;74.60
19803;DHT22;66074;50.764;6.090;2023-06-10T00:14:13;22.60;74.00
19803;DHT22;66074;50.764;6.090;2023-06-10T00:16:39;22.60;74.20
19803;DHT22;66074;50.764;6.090;2023-06-10T00:19:05;22.60;74.60
19803;DHT22;66074;50.764;6.090;2023-06-10T00:21:32;22.60;74.50
19803;DHT22;66074;50.764;6.090;2023-06-10T00:24:06;22.60;75.50
19803;DHT22;66074;50.764;6.090;2023-06-10T00:26:33;22.50;75.40
19803;DHT22;66074;50.764;6.090;2023-06-10T00:29:01;22.40;76.10
19803;DHT22;66074;50.764;6.090;2023-06-10T00:31:27;22.30;76.00
19803;DHT22;66074;50.764;6.090;2023-06-10T00:33:53;22.30;75.40
19803;DHT22;66074;50.764;6.090;2023-06-10T00:36:18;22.30;74.70
19803;DHT22;66074;50.764;6.090;2023-06-10T00:38:44;22.30;73.70
19803;DHT22;66074;50.764;6.090;2023-06-10T00:41:10;22.30;75.10
19803;DHT22;66074;50.764;6.090;2023-06-10T00:43:35;22.40;75.70
19803;DHT22;66074;50.764;6.090;2023-06-10T00:46:01;22.30;75.10
19803;DHT22;66074;50.764;6.090;2023-06-10T00:48:27;22.30;75.10
19803;DHT22;66074;50.764;6.090;2023-06-10T00:50:54;22.30;75.10
19803;DHT22;66074;50.764;6.090;2023-06-10T00:53:21;22.20;74.90
19803;DHT22;66074;50.764;6.090;2023-06-10T00:55:47;22.10;76.10
19803;DHT22;66074;50.764;6.090;2023-06-10T00:58:13;22.10;76.30
19803;DHT22;66074;50.764;6.090;2023-06-10T01:00:39;22.10;75.90
19803;DHT22;66074;50.764;6.090;2023-06-10T01:03:05;22.10;76.30
19803;DHT22;66074;50.764;6.090;2023-06-10T01:05:37;22.10;76.50
19803;DHT22;66074;50.764;6.090;2023-06-10T01:10:54;22.00;74.70
19803;DHT22;66074;50.764;6.090;2023-06-10T01:13:22;22.00;76.60
19803;DHT22;66074;50.764;6.090;2023-06-10T01:15:50;21.90;76.10
19803;DHT22;66074;50.764;6.090;2023-06-10T01:18:17;21.90;76.40
19803;DHT22;66074;50.764;6.090;2023-06-10T01:20:43;21.90;76.70
19803;DHT22;66074;50.764;6.090;2023-06-10T01:23:12;21.90;76.20
19803;DHT22;66074;50.764;6.090;2023-06-10T01:25:40;21.80;76.70
19803;DHT22;66074;50.764;6.090;2023-06-10T01:28:31;21.80;76.40
19803;DHT22;66074;50.764;6.090;2023-06-10T01:31:31;21.80;76.60
19803;DHT22;66074;50.764;6.090;2023-06-10T01:34:00;21.70;76.10
19803;DHT22;66074;50.764;6.090;2023-06-10T01:36:27;21.70;75.80
19803;DHT22;66074;50.764;6.090;2023-06-10T01:38:54;21.70;77.70
19803;DHT22;66074;50.764;6.090;2023-06-10T01:41:21;21.60;77.40
19803;DHT22;66074;50.764;6.090;2023-06-10T01:43:48;21.60;78.10
19803;DHT22;66074;50.764;6.090;2023-06-10T01:46:14;21.50;78.00
19803;DHT22;66074;50.764;6.090;2023-06-10T01:48:41;21.50;77.00
19803;DHT22;66074;50.764;6.090;2023-06-10T01:51:07;21.50;77.80
19803;DHT22;66074;50.764;6.090;2023-06-10T01:53:33;21.50;77.20
19803;DHT22;66074;50.764;6.090;2023-06-10T01:55:58;21.40;78.10
19803;DHT22;66074;50.764;6.090;2023-06-10T01:58:25;21.40;78.50
19803;DHT22;66074;50.764;6.090;2023-06-10T02:00:51;21.40;77.80
19803;DHT22;66074;50.764;6.090;2023-06-10T02:03:16;21.40;78.20
19803;DHT22;66074;50.764;6.090;2023-06-10T02:05:42;21.40;78.70
19803;DHT22;66074;50.764;6.090;2023-06-10T02:08:08;21.30;77.60
19803;DHT22;66074;50.764;6.090;2023-06-10T02:10:34;21.30;77.60
19803;DHT22;66074;50.764;6.090;2023-06-10T02:12:59;21.30;78.70
19803;DHT22;66074;50.764;6.090;2023-06-10T02:15:25;21.20;78.60
19803;DHT22;66074;50.764;6.090;2023-06-10T02:17:52;21.20;77.40
19803;DHT22;66074;50.764;6.090;2023-06-10T02:20:18;21.20;77.40
19803;DHT22;66074;50.764;6.090;2023-06-10T02:22:43;21.20;78.90
19803;DHT22;66074;50.764;6.090;2023-06-10T02:25:09;21.20;77.80
19803;DHT22;66074;50.764;6.090;2023-06-10T02:27:35;21.20;78.80
19803;DHT22;66074;50.764;6.090;2023-06-10T02:30:00;21.20;77.40
19803;DHT22;66074;50.764;6.090;2023-06-10T02:32:26;21.10;78.80
19803;DHT22;66074;50.764;6.090;2023-06-10T02:34:52;21.10;78.90
19803;DHT22;66074;50.764;6.090;2023-06-10T02:37:18;21.00;79.10
19803;DHT22;66074;50.764;6.090;2023-06-10T02:39:43;21.00;79.50
19803;DHT22;66074;50.764;6.090;2023-06-10T02:42:09;21.00;79.40
19803;DHT22;66074;50.764;6.090;2023-06-10T02:44:35;20.90;79.60
19803;DHT22;66074;50.764;6.090;2023-06-10T02:47:01;20.90;79.30
19803;DHT22;66074;50.764;6.090;2023-06-10T02:49:27;20.90;79.50
19803;DHT22;66074;50.764;6.090;2023-06-10T02:51:55;20.80;79.10
19803;DHT22;66074;50.764;6.090;2023-06-10T02:54:22;20.80;79.30
19803;DHT22;66074;50.764;6.090;2023-06-10T02:56:49;20.80;78.60
19803;DHT22;66074;50.764;6.090;2023-06-10T02:59:14;20.80;80.30
19803;DHT22;66074;50.764;6.090;2023-06-10T03:01:40;20.80;79.60
19803;DHT22;66074;50.764;6.090;2023-06-10T03:04:06;20.80;79.40
19803;DHT22;66074;50.764;6.090;2023-06-10T03:06:32;20.80;80.00
19803;DHT22;66074;50.764;6.090;2023-06-10T03:09:02;20.70;79.10
19803;DHT22;66074;50.764;6.090;2023-06-10T03:11:29;20.80;79.50
19803;DHT22;66074;50.764;6.090;2023-06-10T03:13:56;20.80;80.30
19803;DHT22;66074;50.764;6.090;2023-06-10T03:16:21;20.70;80.30
19803;DHT22;66074;50.764;6.090;2023-06-10T03:18:48;20.60;80.10
19803;DHT22;66074;50.764;6.090;2023-06-10T03:21:14;20.70;79.50
19803;DHT22;66074;50.764;6.090;2023-06-10T03:23:39;20.70;79.70
19803;DHT22;66074;50.764;6.090;2023-06-10T03:26:05;20.60;80.10
19803;DHT22;66074;50.764;6.090;2023-06-10T03:28:31;20.60;79.10
19803;DHT22;66074;50.764;6.090;2023-06-10T03:30:57;20.60;80.10
19803;DHT22;66074;50.764;6.090;2023-06-10T03:33:22;20.60;80.70
19803;DHT22;66074;50.764;6.090;2023-06-10T03:35:48;20.60;80.40
19803;DHT22;66074;50.764;6.090;2023-06-10T03:38:14;20.60;80.30
19803;DHT22;66074;50.764;6.090;2023-06-10T03:40:40;20.60;81.00
19803;DHT22;66074;50.764;6.090;2023-06-10T03:43:05;20.60;80.90
19803;DHT22;66074;50.764;6.090;2023-06-10T03:45:31;20.60;80.20
19803;DHT22;66074;50.764;6.090;2023-06-10T03:47:57;20.50;79.60
19803;DHT22;66074;50.764;6.090;2023-06-10T03:50:23;20.60;79.10
19803;DHT22;66074;50.764;6.090;2023-06-10T03:52:52;20.50;81.10
19803;DHT22;66074;50.764;6.090;2023-06-10T03:55:18;20.50;80.90
19803;DHT22;66074;50.764;6.090;2023-06-10T03:57:47;20.50;80.30
19803;DHT22;66074;50.764;6.090;2023-06-10T04:00:13;20.50;80.90
19803;DHT22;66074;50.764;6.090;2023-06-10T04:02:39;20.50;81.70
19803;DHT22;66074;50.764;6.090;2023-06-10T04:05:17;20.50;81.10
19803;DHT22;66074;50.764;6.090;2023-06-10T04:07:43;20.40;81.40
19803;DHT22;66074;50.764;6.090;2023-06-10T04:10:10;20.40;81.40
19803;DHT22;66074;50.764;6.090;2023-06-10T04:12:37;20.40;81.60
19803;DHT22;66074;50.764;6.090;2023-06-10T04:15:04;20.40;81.60
19803;DHT22;66074;50.764;6.090;2023-06-10T04:17:29;20.40;81.50
19803;DHT22;66074;50.764;6.090;2023-06-10T04:19:55;20.40;81.90
19803;DHT22;66074;50.764;6.090;2023-06-10T04:22:21;20.40;80.70
19803;DHT22;66074;50.764;6.090;2023-06-10T04:24:48;20.40;81.60
19803;DHT22;66074;50.764;6.090;2023-06-10T04:27:14;20.40;80.00
19803;DHT22;66074;50.764;6.090;2023-06-10T04:29:41;20.40;82.90
19803;DHT22;66074;50.764;6.090;2023-06-10T04:32:07;20.30;82.60
19803;DHT22;66074;50.764;6.090;2023-06-10T04:34:33;20.30;82.40
19803;DHT22;66074;50.764;6.090;2023-06-10T04:36:59;20.30;81.80
19803;DHT22;66074;50.764;6.090;2023-06-10T04:39:25;20.30;82.80
19803;DHT22;66074;50.764;6.090;2023-06-10T04:41:51;20.30;81.10
19803;DHT22;66074;50.764;6.090;2023-06-10T04:44:17;20.40;81.70
19803;DHT22;66074;50.764;6.090;2023-06-10T04:46:42;20.40;82.60
19803;DHT22;66074;50.764;6.090;2023-06-10T04:49:08;20.40;82.30
19803;DHT22;66074;50.764;6.090;2023-06-10T04:51:34;20.50;82.50
19803;DHT22;66074;50.764;6.090;2023-06-10T04:53:59;20.50;82.40
19803;DHT22;66074;50.764;6.090;2023-06-10T04:56:29;20.50;81.50
19803;DHT22;66074;50.764;6.090;2023-06-10T04:58:59;20.50;82.40
19803;DHT22;66074;50.764;6.090;2023-06-10T05:01:24;20.50;82.80
19803;DHT22;66074;50.764;6.090;2023-06-10T05:03:50;20.50;83.20
19803;DHT22;66074;50.764;6.090;2023-06-10T05:06:16;20.50;82.60
19803;DHT22;66074;50.764;6.090;2023-06-10T05:08:41;20.60;82.10
19803;DHT22;66074;50.764;6.090;2023-06-10T05:11:07;20.60;81.60
19803;DHT22;66074;50.764;6.090;2023-06-10T05:13:32;20.60;82.50
19803;DHT22;66074;50.764;6.090;2023-06-10T05:15:58;20.60;82.40
19803;DHT22;66074;50.764;6.090;2023-06-10T05:18:24;20.60;82.70
19803;DHT22;66074;50.764;6.090;2023-06-10T05:20:50;20.60;83.20
19803;DHT22;66074;50.764;6.090;2023-06-10T05:23:15;20.60;82.80
19803;DHT22;66074;50.764;6.090;2023-06-10T05:25:41;20.70;82.60
19803;DHT22;66074;50.764;6.090;2023-06-10T05:28:08;20.70;82.40
19803;DHT22;66074;50.764;6.090;2023-06-10T05:30:36;20.70;81.80
19803;DHT22;66074;50.764;6.090;2023-06-10T05:33:02;20.80;82.10
19803;DHT22;66074;50.764;6.090;2023-06-10T05:35:28;20.80;81.60
19803;DHT22;66074;50.764;6.090;2023-06-10T05:37:53;20.90;81.80
19803;DHT22;66074;50.764;6.090;2023-06-10T05:40:19;21.00;81.50
19803;DHT22;66074;50.764;6.090;2023-06-10T05:42:45;21.10;81.50
19803;DHT22;66074;50.764;6.090;2023-06-10T05:45:11;21.10;82.40
19803;DHT22;66074;50.764;6.090;2023-06-10T05:47:36;21.20;81.70
19803;DHT22;66074;50.764;6.090;2023-06-10T05:50:02;21.20;81.00
19803;DHT22;66074;50.764;6.090;2023-06-10T05:52:35;21.30;81.50
19803;DHT22;66074;50.764;6.090;2023-06-10T05:55:04;21.30;81.20
19803;DHT22;66074;50.764;6.090;2023-06-10T05:57:30;21.40;81.20
19803;DHT22;66074;50.764;6.090;2023-06-10T05:59:56;21.40;81.00
19803;DHT22;66074;50.764;6.090;2023-06-10T06:02:22;21.50;81.10
19803;DHT22;66074;50.764;6.090;2023-06-10T06:04:47;21.50;81.20
19803;DHT22;66074;50.764;6.090;2023-06-10T06:07:13;21.50;81.40
19803;DHT22;66074;50.764;6.090;2023-06-10T06:09:38;21.60;81.30
19803;DHT22;66074;50.764;6.090;2023-06-10T06:12:04;21.60;81.20
19803;DHT22;66074;50.764;6.090;2023-06-10T06:14:32;21.70;81.20
19803;DHT22;66074;50.764;6.090;2023-06-10T06:16:57;21.70;81.40
19803;DHT22;66074;50.764;6.090;2023-06-10T06:19:23;21.80;81.40
19803;DHT22;66074;50.764;6.090;2023-06-10T06:21:49;21.80;81.20
19803;DHT22;66074;50.764;6.090;2023-06-10T06:24:15;21.80;81.30
19803;DHT22;66074;50.764;6.090;2023-06-10T06:26:41;21.90;80.90
19803;DHT22;66074;50.764;6.090;2023-06-10T06:29:07;21.90;81.00
19803;DHT22;66074;50.764;6.090;2023-06-10T06:31:32;22.00;81.00
19803;DHT22;66074;50.764;6.090;2023-06-10T06:33:58;22.00;80.90
19803;DHT22;66074;50.764;6.090;2023-06-10T06:36:24;22.10;80.90
19803;DHT22;66074;50.764;6.090;2023-06-10T06:38:49;22.10;80.80
19803;DHT22;66074;50.764;6.090;2023-06-10T06:41:15;22.20;80.90
19803;DHT22;66074;50.764;6.090;2023-06-10T06:43:40;22.20;80.80
19803;DHT22;66074;50.764;6.090;2023-06-10T06:46:07;22.30;80.80
19803;DHT22;66074;50.764;6.090;2023-06-10T06:48:33;22.40;80.80
19803;DHT22;66074;50.764;6.090;2023-06-10T06:50:58;22.40;80.80
19803;DHT22;66074;50.764;6.090;2023-06-10T06:53:24;22.50;80.60
19803;DHT22;66074;50.764;6.090;2023-06-10T06:55:50;22.50;80.50
19803;DHT22;66074;50.764;6.090;2023-06-10T06:58:16;22.60;80.00
19803;DHT22;66074;50.764;6.090;2023-06-10T07:00:41;22.60;80.20
19803;DHT22;66074;50.764;6.090;2023-06-10T07:03:07;22.70;79.90
19803;DHT22;66074;50.764;6.090;2023-06-10T07:05:33;22.70;80.10
19803;DHT22;66074;50.764;6.090;2023-06-10T07:07:58;22.80;80.10
19803;DHT22;66074;50.764;6.090;2023-06-10T07:10:24;22.80;80.00
19803;DHT22;66074;50.764;6.090;2023-06-10T07:12:50;22.90;79.70
19803;DHT22;66074;50.764;6.090;2023-06-10T07:15:16;22.90;79.70
19803;DHT22;66074;50.764;6.090;2023-06-10T07:17:42;23.00;79.70
19803;DHT22;66074;50.764;6.090;2023-06-10T07:20:08;23.00;79.90
19803;DHT22;66074;50.764;6.090;2023-06-10T07:22:34;23.10;79.80
19803;DHT22;66074;50.764;6.090;2023-06-10T07:25:00;23.20;79.90
19803;DHT22;66074;50.764;6.090;2023-06-10T07:27:25;23.20;79.70
19803;DHT22;66074;50.764;6.090;2023-06-10T07:29:51;23.20;79.80
19803;DHT22;66074;50.764;6.090;2023-06-10T07:32:17;23.20;79.60
19803;DHT22;66074;50.764;6.090;2023-06-10T07:34:43;23.30;79.80
19803;DHT22;66074;50.764;6.090;2023-06-10T07:37:09;23.30;80.10
19803;DHT22;66074;50.764;6.090;2023-06-10T07:39:34;23.30;80.20
19803;DHT22;66074;50.764;6.090;2023-06-10T07:42:00;23.30;80.40
19803;DHT22;66074;50.764;6.090;2023-06-10T07:44:26;23.40;80.30
19803;DHT22;66074;50.764;6.090;2023-06-10T07:46:52;23.50;80.20
19803;DHT22;66074;50.764;6.090;2023-06-10T07:49:17;23.50;80.20
19803;DHT22;66074;50.764;6.090;2023-06-10T07:51:43;23.60;80.20
19803;DHT22;66074;50.764;6.090;2023-06-10T07:54:09;23.60;80.20
19803;DHT22;66074;50.764;6.090;2023-06-10T07:56:34;23.60;80.00
19803;DHT22;66074;50.764;6.090;2023-06-10T07:59:00;23.70;79.90
19803;DHT22;66074;50.764;6.090;2023-06-10T08:01:25;23.80;79.90
19803;DHT22;66074;50.764;6.090;2023-06-10T08:03:51;23.90;79.20
19803;DHT22;66074;50.764;6.090;2023-06-10T08:06:17;24.00;79.60
19803;DHT22;66074;50.764;6.090;2023-06-10T08:08:43;24.00;79.80
19803;DHT22;66074;50.764;6.090;2023-06-10T08:11:13;24.00;79.60
19803;DHT22;66074;50.764;6.090;2023-06-10T08:13:38;24.00;79.90
19803;DHT22;66074;50.764;6.090;2023-06-10T08:16:05;24.10;79.90
19803;DHT22;66074;50.764;6.090;2023-06-10T08:18:31;24.10;79.50
19803;DHT22;66074;50.764;6.090;2023-06-10T08:20:57;24.10;79.50
19803;DHT22;66074;50.764;6.090;2023-06-10T08:23:22;24.20;79.20
19803;DHT22;66074;50.764;6.090;2023-06-10T08:25:48;24.20;79.00
19803;DHT22;66074;50.764;6.090;2023-06-10T08:28:14;24.20;78.90
19803;DHT22;66074;50.764;6.090;2023-06-10T08:30:40;24.20;79.20
19803;DHT22;66074;50.764;6.090;2023-06-10T08:33:05;24.30;79.30
19803;DHT22;66074;50.764;6.090;2023-06-10T08:35:31;24.40;78.30
19803;DHT22;66074;50.764;6.090;2023-06-10T08:37:57;24.40;78.20
19803;DHT22;66074;50.764;6.090;2023-06-10T08:40:22;24.50;78.20
19803;DHT22;66074;50.764;6.090;2023-06-10T08:45:30;24.60;78.70
19803;DHT22;66074;50.764;6.090;2023-06-10T08:47:57;24.60;78.50
19803;DHT22;66074;50.764;6.090;2023-06-10T08:50:23;24.70;77.80
19803;DHT22;66074;50.764;6.090;2023-06-10T08:52:52;24.70;77.00
19803;DHT22;66074;50.764;6.090;2023-06-10T08:55:23;24.80;77.30
19803;DHT22;66074;50.764;6.090;2023-06-10T08:57:52;24.80;77.70
19803;DHT22;66074;50.764;6.090;2023-06-10T09:00:18;24.80;77.80
19803;DHT22;66074;50.764;6.090;2023-06-10T09:02:44;24.90;76.10
19803;DHT22;66074;50.764;6.090;2023-06-10T09:05:10;25.00;76.90
19803;DHT22;66074;50.764;6.090;2023-06-10T09:07:36;25.00;77.30
19803;DHT22;66074;50.764;6.090;2023-06-10T09:10:03;25.10;76.40
19803;DHT22;66074;50.764;6.090;2023-06-10T09:12:30;25.10;76.10
19803;DHT22;66074;50.764;6.090;2023-06-10T09:14:55;25.20;76.90
19803;DHT22;66074;50.764;6.090;2023-06-10T09:17:22;25.20;76.00
19803;DHT22;66074;50.764;6.090;2023-06-10T09:19:47;25.20;76.20
19803;DHT22;66074;50.764;6.090;2023-06-10T09:22:14;25.30;75.90
19803;DHT22;66074;50.764;6.090;2023-06-10T09:24:40;25.30;74.30
19803;DHT22;66074;50.764;6.090;2023-06-10T09:27:07;25.30;75.10
19803;DHT22;66074;50.764;6.090;2023-06-10T09:29:53;25.40;75.80
19803;DHT22;66074;50.764;6.090;2023-06-10T09:32:19;25.40;73.70
19803;DHT22;66074;50.764;6.090;2023-06-10T09:34:46;25.60;75.50
19803;DHT22;66074;50.764;6.090;2023-06-10T09:37:12;25.50;74.00
19803;DHT22;66074;50.764;6.090;2023-06-10T09:39:42;25.60;73.00
19803;DHT22;66074;50.764;6.090;2023-06-10T09:42:17;25.60;72.60
19803;DHT22;66074;50.764;6.090;2023-06-10T09:44:52;25.60;72.20
19803;DHT22;66074;50.764;6.090;2023-06-10T09:47:21;25.70;71.90
19803;DHT22;66074;50.764;6.090;2023-06-10T09:49:50;25.70;72.20
19803;DHT22;66074;50.764;6.090;2023-06-10T09:52:23;25.70;72.40
19803;DHT22;66074;50.764;6.090;2023-06-10T09:54:50;25.70;73.00
19803;DHT22;66074;50.764;6.090;2023-06-10T09:57:16;25.80;73.40
19803;DHT22;66074;50.764;6.090;2023-06-10T09:59:42;25.80;73.00
19803;DHT22;66074;50.764;6.090;2023-06-10T10:02:16;25.80;72.60
19803;DHT22;66074;50.764;6.090;2023-06-10T10:04:45;25.90;73.30
19803;DHT22;66074;50.764;6.090;2023-06-10T10:07:13;26.00;74.10
19803;DHT22;66074;50.764;6.090;2023-06-10T10:09:40;26.00;74.00
19803;DHT22;66074;50.764;6.090;2023-06-10T10:12:10;26.00;71.70
19803;DHT22;66074;50.764;6.090;2023-06-10T10:14:36;26.10;73.70
19803;DHT22;66074;50.764;6.090;2023-06-10T10:17:04;26.10;72.20
19803;DHT22;66074;50.764;6.090;2023-06-10T10:19:36;26.20;72.80
19803;DHT22;66074;50.764;6.090;2023-06-10T10:22:10;26.20;70.80
19803;DHT22;66074;50.764;6.090;2023-06-10T10:24:43;26.20;72.80
19803;DHT22;66074;50.764;6.090;2023-06-10T10:27:18;26.30;71.80
19803;DHT22;66074;50.764;6.090;2023-06-10T10:29:47;26.30;70.90
19803;DHT22;66074;50.764;6.090;2023-06-10T10:32:14;26.30;71.80
19803;DHT22;66074;50.764;6.090;2023-06-10T10:37:12;26.40;70.80
19803;DHT22;66074;50.764;6.090;2023-06-10T10:39:40;26.40;72.10
19803;DHT22;66074;50.764;6.090;2023-06-10T10:42:06;26.50;70.90
19803;DHT22;66074;50.764;6.090;2023-06-10T10:44:35;26.50;71.20
19803;DHT22;66074;50.764;6.090;2023-06-10T10:47:07;26.50;71.20
19803;DHT22;66074;50.764;6.090;2023-06-10T10:49:35;26.60;69.80
19803;DHT22;66074;50.764;6.090;2023-06-10T10:52:03;26.60;70.30
19803;DHT22;66074;50.764;6.090;2023-06-10T10:54:34;26.60;70.20
19803;DHT22;66074;50.764;6.090;2023-06-10T10:59:57;26.70;69.40
19803;DHT22;66074;50.764;6.090;2023-06-10T11:02:43;26.70;70.40
19803;DHT22;66074;50.764;6.090;2023-06-10T11:05:12;26.70;68.50
19803;DHT22;66074;50.764;6.090;2023-06-10T11:07:38;26.70;67.90
19803;DHT22;66074;50.764;6.090;2023-06-10T11:10:09;26.80;68.10
19803;DHT22;66074;50.764;6.090;2023-06-10T11:15:11;26.90;67.40
19803;DHT22;66074;50.764;6.090;2023-06-10T11:17:37;26.80;69.70
19803;DHT22;66074;50.764;6.090;2023-06-10T11:20:02;26.90;69.60
19803;DHT22;66074;50.764;6.090;2023-06-10T11:22:28;26.90;67.80
19803;DHT22;66074;50.764;6.090;2023-06-10T11:24:54;26.90;68.40
19803;DHT22;66074;50.764;6.090;2023-06-10T11:27:23;26.90;68.20
19803;DHT22;66074;50.764;6.090;2023-06-10T11:30:17;26.90;68.40
19803;DHT22;66074;50.764;6.090;2023-06-10T11:32:50;27.00;68.20
19803;DHT22;66074;50.764;6.090;2023-06-10T11:35:17;27.00;68.20
19803;DHT22;66074;50.764;6.090;2023-06-10T11:37:46;27.20;67.70
19803;DHT22;66074;50.764;6.090;2023-06-10T11:40:12;27.10;66.90
19803;DHT22;66074;50.764;6.090;2023-06-10T11:42:40;27.20;66.60
19803;DHT22;66074;50.764;6.090;2023-06-10T11:45:06;27.20;67.70
19803;DHT22;66074;50.764;6.090;2023-06-10T11:47:33;27.20;67.50
19803;DHT22;66074;50.764;6.090;2023-06-10T11:49:59;27.30;65.70
19803;DHT22;66074;50.764;6.090;2023-06-10T11:52:31;27.30;67.70
19803;DHT22;66074;50.764;6.090;2023-06-10T11:55:05;27.40;66.90
19803;DHT22;66074;50.764;6.090;2023-06-10T11:57:34;27.40;65.80
19803;DHT22;66074;50.764;6.090;2023-06-10T12:00:05;27.50;66.80
19803;DHT22;66074;50.764;6.090;2023-06-10T12:02:31;27.50;65.00
19803;DHT22;66074;50.764;6.090;2023-06-10T12:05:12;27.50;64.50
19803;DHT22;66074;50.764;6.090;2023-06-10T12:07:38;27.50;65.00
19803;DHT22;66074;50.764;6.090;2023-06-10T12:10:04;27.60;66.70
19803;DHT22;66074;50.764;6.090;2023-06-10T12:12:30;27.60;66.90
19803;DHT22;66074;50.764;6.090;2023-06-10T12:14:59;27.60;69.20
19803;DHT22;66074;50.764;6.090;2023-06-10T12:20:06;27.70;67.50
19803;DHT22;66074;50.764;6.090;2023-06-10T12:22:43;27.70;65.10
19803;DHT22;66074;50.764;6.090;2023-06-10T12:25:10;27.80;65.20
19803;DHT22;66074;50.764;6.090;2023-06-10T12:27:41;27.80;67.60
19803;DHT22;66074;50.764;6.090;2023-06-10T12:30:21;27.90;66.30
19803;DHT22;66074;50.764;6.090;2023-06-10T12:32:47;28.00;66.90
19803;DHT22;66074;50.764;6.090;2023-06-10T12:35:17;28.00;66.20
19803;DHT22;66074;50.764;6.090;2023-06-10T12:37:58;28.10;67.30
19803;DHT22;66074;50.764;6.090;2023-06-10T12:40:37;28.20;67.30
19803;DHT22;66074;50.764;6.090;2023-06-10T12:43:05;28.30;62.50
19803;DHT22;66074;50.764;6.090;2023-06-10T12:45:36;28.40;61.50
19803;DHT22;66074;50.764;6.090;2023-06-10T12:48:16;28.40;62.20
19803;DHT22;66074;50.764;6.090;2023-06-10T12:50:43;28.50;64.50
19803;DHT22;66074;50.764;6.090;2023-06-10T12:53:10;28.60;66.20
19803;DHT22;66074;50.764;6.090;2023-06-10T12:55:39;28.70;65.40
19803;DHT22;66074;50.764;6.090;2023-06-10T12:58:05;28.80;62.10
19803;DHT22;66074;50.764;6.090;2023-06-10T13:00:31;28.90;63.30
19803;DHT22;66074;50.764;6.090;2023-06-10T13:02:59;28.90;62.30
19803;DHT22;66074;50.764;6.090;2023-06-10T13:05:25;29.00;62.80
19803;DHT22;66074;50.764;6.090;2023-06-10T13:07:51;29.00;63.10
19803;DHT22;66074;50.764;6.090;2023-06-10T13:10:17;29.00;64.70
19803;DHT22;66074;50.764;6.090;2023-06-10T13:12:44;29.20;64.90
19803;DHT22;66074;50.764;6.090;2023-06-10T13:15:10;29.30;61.70
19803;DHT22;66074;50.764;6.090;2023-06-10T13:17:37;29.70;63.10
19803;DHT22;66074;50.764;6.090;2023-06-10T13:20:06;30.20;61.10
19803;DHT22;66074;50.764;6.090;2023-06-10T13:22:33;31.40;59.00
19803;DHT22;66074;50.764;6.090;2023-06-10T13:25:00;32.50;57.70
19803;DHT22;66074;50.764;6.090;2023-06-10T13:27:26;33.40;58.60
19803;DHT22;66074;50.764;6.090;2023-06-10T13:29:52;34.40;60.10
19803;DHT22;66074;50.764;6.090;2023-06-10T13:32:18;35.40;57.60
19803;DHT22;66074;50.764;6.090;2023-06-10T13:34:44;36.10;56.50
19803;DHT22;66074;50.764;6.090;2023-06-10T13:37:10;36.90;54.30
19803;DHT22;66074;50.764;6.090;2023-06-10T13:39:38;37.60;54.10
19803;DHT22;66074;50.764;6.090;2023-06-10T13:42:04;38.70;52.90
19803;DHT22;66074;50.764;6.090;2023-06-10T13:44:30;39.60;61.90
19803;DHT22;66074;50.764;6.090;2023-06-10T13:46:59;40.60;56.20
19803;DHT22;66074;50.764;6.090;2023-06-10T13:49:24;41.60;62.30
19803;DHT22;66074;50.764;6.090;2023-06-10T13:51:50;41.90;57.80
19803;DHT22;66074;50.764;6.090;2023-06-10T13:54:18;40.30;47.90
19803;DHT22;66074;50.764;6.090;2023-06-10T13:56:43;38.50;50.30
19803;DHT22;66074;50.764;6.090;2023-06-10T13:59:09;37.00;52.00
19803;DHT22;66074;50.764;6.090;2023-06-10T14:01:34;36.30;52.90
19803;DHT22;66074;50.764;6.090;2023-06-10T14:04:00;35.40;51.20
19803;DHT22;66074;50.764;6.090;2023-06-10T14:06:26;34.50;53.50
19803;DHT22;66074;50.764;6.090;2023-06-10T14:08:52;34.00;52.90
19803;DHT22;66074;50.764;6.090;2023-06-10T14:11:20;33.50;53.60
19803;DHT22;66074;50.764;6.090;2023-06-10T14:13:46;33.20;53.70
19803;DHT22;66074;50.764;6.090;2023-06-10T14:16:12;33.20;55.00
19803;DHT22;66074;50.764;6.090;2023-06-10T14:18:37;33.50;53.90
19803;DHT22;66074;50.764;6.090;2023-06-10T14:21:03;33.70;55.00
19803;DHT22;66074;50.764;6.090;2023-06-10T14:23:29;33.90;53.80
19803;DHT22;66074;50.764;6.090;2023-06-10T14:25:54;34.20;56.10
19803;DHT22;66074;50.764;6.090;2023-06-10T14:28:20;34.50;56.60
19803;DHT22;66074;50.764;6.090;2023-06-10T14:30:45;34.80;55.40
19803;DHT22;66074;50.764;6.090;2023-06-10T14:33:11;35.10;55.30
19803;DHT22;66074;50.764;6.090;2023-06-10T14:35:37;35.30;52.90
19803;DHT22;66074;50.764;6.090;2023-06-10T14:38:02;35.30;53.40
19803;DHT22;66074;50.764;6.090;2023-06-10T14:40:31;35.30;50.40
19803;DHT22;66074;50.764;6.090;2023-06-10T14:42:57;35.20;49.40
19803;DHT22;66074;50.764;6.090;2023-06-10T14:45:23;35.20;48.80
19803;DHT22;66074;50.764;6.090;2023-06-10T14:47:50;35.30;49.50
19803;DHT22;66074;50.764;6.090;2023-06-10T14:50:16;35.30;50.70
19803;DHT22;66074;50.764;6.090;2023-06-10T14:52:42;35.50;51.50
19803;DHT22;66074;50.764;6.090;2023-06-10T14:55:07;35.50;50.00
19803;DHT22;66074;50.764;6.090;2023-06-10T14:57:33;35.60;48.60
19803;DHT22;66074;50.764;6.090;2023-06-10T14:59:59;35.50;47.20
19803;DHT22;66074;50.764;6.090;2023-06-10T15:02:24;35.40;49.60
19803;DHT22;66074;50.764;6.090;2023-06-10T15:04:52;35.20;46.50
19803;DHT22;66074;50.764;6.090;2023-06-10T15:07:17;35.00;48.30
19803;DHT22;66074;50.764;6.090;2023-06-10T15:09:43;34.80;46.90
19803;DHT22;66074;50.764;6.090;2023-06-10T15:12:09;34.50;48.20
19803;DHT22;66074;50.764;6.090;2023-06-10T15:14:36;34.60;48.90
19803;DHT22;66074;50.764;6.090;2023-06-10T15:17:01;34.80;49.00
19803;DHT22;66074;50.764;6.090;2023-06-10T15:19:27;34.90;48.50
19803;DHT22;66074;50.764;6.090;2023-06-10T15:21:53;34.70;47.90
19803;DHT22;66074;50.764;6.090;2023-06-10T15:24:19;34.40;47.40
19803;DHT22;66074;50.764;6.090;2023-06-10T15:26:44;34.30;47.70
19803;DHT22;66074;50.764;6.090;2023-06-10T15:29:13;34.30;47.60
19803;DHT22;66074;50.764;6.090;2023-06-10T15:31:39;34.20;47.60
19803;DHT22;66074;50.764;6.090;2023-06-10T15:34:05;34.00;47.10
19803;DHT22;66074;50.764;6.090;2023-06-10T15:36:32;33.70;48.20
19803;DHT22;66074;50.764;6.090;2023-06-10T15:39:02;33.60;48.40
19803;DHT22;66074;50.764;6.090;2023-06-10T15:41:28;33.60;48.10
19803;DHT22;66074;50.764;6.090;2023-06-10T15:43:54;33.30;46.90
19803;DHT22;66074;50.764;6.090;2023-06-10T15:46:20;33.00;47.30